Pacific Princess — ZCDS3 — position and weather

sailwx.info

Track history (hours):
 
Tides and Currents Weather Stations Pressure Air Temp Water Temp Dewpoint Dewpoint Depression Visibility Wind Speed Wind Dir Waves Ship Positions

Pacific Princess (Bermuda)

Last reported at 2019-May-13 05:55 UTC. Time now 2019-May-20 03:13 UTC.
Position N 32°07' W 117°36'.

Length 180.5 m; beam 25.6 m; draft 6 m.

Type: Passenger vessel. MMSI: 310504000.

Date/timePositionNaut miles runAvg speedWind from/ knotsBaromVisibWave heightAir tempDewpointWater temp
2019-May-13 05:55N 32°07' W 117°36'818.6
2019-May-13 05:30N 32°15' W 117°39'917.4
2019-May-13 05:01N 32°23' W 117°43'816.3
2019-May-13 04:30N 32°30' W 117°46'918.9
2019-May-13 04:00N 32°39' W 117°50'918.9
2019-May-13 03:30N 32°48' W 117°54'918.8
2019-May-13 03:01N 32°57' W 117°57'918.7
2019-May-13 02:30N 33°06' W 118°01'918.9
2019-May-13 02:00N 33°15' W 118°04'919.0
2019-May-13 01:31N 33°24' W 118°08'918.6
2019-May-13 01:00N 33°32' W 118°12'713.8
2019-May-13 00:30N 33°39' W 118°15'4 9.0
2019-May-13 00:00N 33°43' W 118°16'2 3.0
2019-May-12 23:28N 33°45' W 118°17'0 0.0
2019-May-12 22:58N 33°45' W 118°17'0 0.0
2019-May-12 22:28N 33°45' W 118°17'0 0.0
2019-May-12 21:58N 33°45' W 118°17'0 0.0
2019-May-12 21:28N 33°45' W 118°17'0 0.0
2019-May-12 20:58N 33°45' W 118°17'0 0.0
2019-May-12 20:28N 33°45' W 118°17'0 0.0
2019-May-12 19:58N 33°45' W 118°17'0 0.0
2019-May-12 19:28N 33°45' W 118°17'0 0.0
2019-May-12 18:55N 33°45' W 118°17'0 0.0
2019-May-12 18:28N 33°45' W 118°17'0 0.0
2019-May-12 17:58N 33°45' W 118°17'0 0.0
2019-May-12 17:28N 33°45' W 118°17'0 0.0
2019-May-12 16:58N 33°45' W 118°17'0 0.0
2019-May-12 16:25N 33°45' W 118°17'0 0.0
2019-May-12 15:58N 33°45' W 118°17'0 0.0
2019-May-12 15:28N 33°45' W 118°17'0 0.0
2019-May-12 14:58N 33°45' W 118°17'0 0.0
2019-May-12 14:28N 33°45' W 118°17'1 1.3
2019-May-12 14:00N 33°44' W 118°17'4 7.9
2019-May-12 13:30N 33°41' W 118°13'510.8
2019-May-12 13:00N 33°37' W 118°10'612.0
2019-May-12 12:30N 33°31' W 118°08'612.5
2019-May-12 12:00N 33°25' W 118°06'612.6
2019-May-12 11:30N 33°19' W 118°03'713.1
2019-May-12 11:01N 33°13' W 117°60'612.5
2019-May-12 10:31N 33°07' W 117°57'612.4
2019-May-12 10:00N 33°01' W 117°55'612.2
2019-May-12 09:30N 32°56' W 117°52'612.5
2019-May-12 09:01N 32°50' W 117°50'612.6
2019-May-12 08:30N 32°44' W 117°47'612.5
2019-May-12 08:01N 32°38' W 117°45'612.6
2019-May-12 07:30N 32°32' W 117°42'612.3
2019-May-12 07:00N 32°26' W 117°40'612.8
2019-May-12 06:30N 32°20' W 117°37'713.8
2019-May-12 06:01N 32°14' W 117°35'1115.4
2019-May-12 05:19N 32°04' W 117°30'  
Track history (hours):
 
Tides and Currents Weather Stations Pressure Air Temp Water Temp Dewpoint Dewpoint Depression Visibility Wind Speed Wind Dir Waves Ship Positions

Pacific Princess (Bermuda)

Last reported at 2019-May-13 05:55 UTC. Time now 2019-May-20 03:13 UTC.
Position N 32°07' W 117°36'.

Length 180.5 m; beam 25.6 m; draft 6 m.

Type: Passenger vessel. MMSI: 310504000.

Date/timePositionNaut miles runAvg speedWind from/ knotsBaromVisibWave heightAir tempDewpointWater temp
2019-May-13 05:55N 32°07' W 117°36'818.6
2019-May-13 05:30N 32°15' W 117°39'917.4
2019-May-13 05:01N 32°23' W 117°43'816.3
2019-May-13 04:30N 32°30' W 117°46'918.9
2019-May-13 04:00N 32°39' W 117°50'918.9
2019-May-13 03:30N 32°48' W 117°54'918.8
2019-May-13 03:01N 32°57' W 117°57'918.7
2019-May-13 02:30N 33°06' W 118°01'918.9
2019-May-13 02:00N 33°15' W 118°04'919.0
2019-May-13 01:31N 33°24' W 118°08'918.6
2019-May-13 01:00N 33°32' W 118°12'713.8
2019-May-13 00:30N 33°39' W 118°15'4 9.0
2019-May-13 00:00N 33°43' W 118°16'2 3.0
2019-May-12 23:28N 33°45' W 118°17'0 0.0
2019-May-12 22:58N 33°45' W 118°17'0 0.0
2019-May-12 22:28N 33°45' W 118°17'0 0.0
2019-May-12 21:58N 33°45' W 118°17'0 0.0
2019-May-12 21:28N 33°45' W 118°17'0 0.0
2019-May-12 20:58N 33°45' W 118°17'0 0.0
2019-May-12 20:28N 33°45' W 118°17'0 0.0
2019-May-12 19:58N 33°45' W 118°17'0 0.0
2019-May-12 19:28N 33°45' W 118°17'0 0.0
2019-May-12 18:55N 33°45' W 118°17'0 0.0
2019-May-12 18:28N 33°45' W 118°17'0 0.0
2019-May-12 17:58N 33°45' W 118°17'0 0.0
2019-May-12 17:28N 33°45' W 118°17'0 0.0
2019-May-12 16:58N 33°45' W 118°17'0 0.0
2019-May-12 16:25N 33°45' W 118°17'0 0.0
2019-May-12 15:58N 33°45' W 118°17'0 0.0
2019-May-12 15:28N 33°45' W 118°17'0 0.0
2019-May-12 14:58N 33°45' W 118°17'0 0.0
2019-May-12 14:28N 33°45' W 118°17'1 1.3
2019-May-12 14:00N 33°44' W 118°17'4 7.9
2019-May-12 13:30N 33°41' W 118°13'510.8
2019-May-12 13:00N 33°37' W 118°10'612.0
2019-May-12 12:30N 33°31' W 118°08'612.5
2019-May-12 12:00N 33°25' W 118°06'612.6
2019-May-12 11:30N 33°19' W 118°03'713.1
2019-May-12 11:01N 33°13' W 117°60'612.5
2019-May-12 10:31N 33°07' W 117°57'612.4
2019-May-12 10:00N 33°01' W 117°55'612.2
2019-May-12 09:30N 32°56' W 117°52'612.5
2019-May-12 09:01N 32°50' W 117°50'612.6
2019-May-12 08:30N 32°44' W 117°47'612.5
2019-May-12 08:01N 32°38' W 117°45'612.6
2019-May-12 07:30N 32°32' W 117°42'612.3
2019-May-12 07:00N 32°26' W 117°40'612.8
2019-May-12 06:30N 32°20' W 117°37'713.8
2019-May-12 06:01N 32°14' W 117°35'1115.4
2019-May-12 05:19N 32°04' W 117°30'  

Dump ship's entire track history